createdAt,value
2022-09-07T00:00:39.027Z,16.79
2022-09-07T00:03:05.899Z,16.58
2022-09-07T00:05:32.886Z,16.68
2022-09-07T00:08:00.102Z,16.81
2022-09-07T00:10:26.820Z,16.54
2022-09-07T00:12:53.640Z,16.32
2022-09-07T00:15:20.377Z,16.33
2022-09-07T00:17:46.772Z,16.48
2022-09-07T00:20:13.227Z,16.19
2022-09-07T00:22:39.783Z,16.24
2022-09-07T00:25:06.647Z,16.27
2022-09-07T00:27:33.117Z,16.25
2022-09-07T00:30:00.830Z,16.42
2022-09-07T00:32:27.305Z,15.99
2022-09-07T00:34:53.870Z,16.02
2022-09-07T00:37:20.372Z,15.98
2022-09-07T00:39:47.064Z,15.73
2022-09-07T00:42:13.491Z,16.02
2022-09-07T00:44:42.841Z,15.94
2022-09-07T00:47:38.786Z,15.87
2022-09-07T00:50:16.287Z,16.03
2022-09-07T00:52:45.896Z,15.78
2022-09-07T00:55:16.049Z,15.42
2022-09-07T00:57:47.771Z,15.78
2022-09-07T01:00:14.428Z,15.39
2022-09-07T01:02:42.554Z,15.44
2022-09-07T01:05:31.846Z,15.46
2022-09-07T01:07:58.664Z,15.29
2022-09-07T01:10:26.552Z,15.52
2022-09-07T01:12:53.074Z,15.35
2022-09-07T01:15:22.574Z,15.33
2022-09-07T01:18:01.807Z,15.66
2022-09-07T01:20:40.042Z,15.61
2022-09-07T01:23:56.114Z,15.30
2022-09-07T01:26:47.361Z,15.58
2022-09-07T01:29:23.660Z,15.20
2022-09-07T01:32:16.836Z,15.37
2022-09-07T01:34:50.757Z,15.37
2022-09-07T01:37:40.595Z,15.53
2022-09-07T01:40:13.538Z,15.35
2022-09-07T01:42:56.151Z,15.24
2022-09-07T01:45:28.833Z,15.04
2022-09-07T01:48:04.056Z,15.39
2022-09-07T01:50:55.406Z,15.62
2022-09-07T01:53:28.081Z,15.49
2022-09-07T01:55:57.417Z,15.41
2022-09-07T01:58:50.747Z,15.23
2022-09-07T02:01:24.268Z,15.24
2022-09-07T02:04:17.339Z,15.35
2022-09-07T02:06:57.346Z,15.33
2022-09-07T02:09:46.016Z,15.30
2022-09-07T02:12:46.668Z,15.40
2022-09-07T02:15:37.139Z,15.18
2022-09-07T02:18:07.458Z,15.12
2022-09-07T02:20:39.282Z,14.88
2022-09-07T02:23:17.270Z,14.92
2022-09-07T02:25:48.789Z,14.77
2022-09-07T02:28:20.649Z,15.06
2022-09-07T02:30:47.219Z,15.01
2022-09-07T02:33:13.864Z,14.91
2022-09-07T02:35:40.871Z,14.95
2022-09-07T02:38:08.059Z,15.07
2022-09-07T02:40:34.851Z,14.96
2022-09-07T02:43:03.355Z,15.25
2022-09-07T02:45:46.444Z,14.83
2022-09-07T02:48:49.893Z,15.25
2022-09-07T02:51:33.889Z,14.97
2022-09-07T02:54:18.580Z,14.87
2022-09-07T02:56:59.005Z,14.95
2022-09-07T02:59:56.321Z,15.15
2022-09-07T03:02:53.731Z,15.01
2022-09-07T03:05:23.176Z,14.64
2022-09-07T03:08:01.356Z,14.61
2022-09-07T03:10:28.826Z,14.78
2022-09-07T03:12:55.308Z,14.52
2022-09-07T03:15:25.289Z,14.62
2022-09-07T03:17:52.530Z,14.94
2022-09-07T03:20:20.065Z,14.61
2022-09-07T03:22:48.239Z,14.79
2022-09-07T03:25:15.416Z,14.77
2022-09-07T03:27:41.979Z,14.89
2022-09-07T03:30:10.538Z,14.70
2022-09-07T03:32:38.531Z,14.59
2022-09-07T03:35:06.960Z,14.62
2022-09-07T03:37:36.299Z,14.54
2022-09-07T03:40:04.763Z,14.54
2022-09-07T03:42:31.279Z,14.41
2022-09-07T03:44:57.735Z,14.39
2022-09-07T03:47:24.292Z,14.44
2022-09-07T03:49:51.832Z,14.30
2022-09-07T03:52:18.581Z,14.23
2022-09-07T03:54:45.075Z,14.41
2022-09-07T03:57:11.851Z,14.23
2022-09-07T03:59:38.321Z,14.47
2022-09-07T04:02:05.125Z,13.98
2022-09-07T04:04:31.550Z,13.98
2022-09-07T04:06:58.018Z,13.97
2022-09-07T04:09:27.206Z,13.91
2022-09-07T04:11:53.716Z,14.15
2022-09-07T04:14:20.350Z,13.95
2022-09-07T04:16:47.036Z,14.19
2022-09-07T04:19:13.488Z,14.17
2022-09-07T04:21:40.011Z,14.00
2022-09-07T04:24:06.824Z,14.06
2022-09-07T04:26:34.249Z,14.23
2022-09-07T04:29:01.386Z,14.04
2022-09-07T04:31:28.020Z,14.14
2022-09-07T04:33:55.536Z,14.03
2022-09-07T04:36:24.817Z,13.97
2022-09-07T04:39:00.096Z,13.91
2022-09-07T04:41:28.873Z,13.93
2022-09-07T04:43:57.963Z,13.88
2022-09-07T04:46:30.102Z,14.13
2022-09-07T04:49:03.105Z,14.04
2022-09-07T04:51:31.729Z,13.98
2022-09-07T04:53:59.729Z,13.60
2022-09-07T04:56:26.557Z,14.21
2022-09-07T04:58:52.992Z,14.38
2022-09-07T05:01:22.494Z,14.21
2022-09-07T05:03:49.456Z,14.53
2022-09-07T05:06:17.902Z,14.47
2022-09-07T05:08:46.815Z,14.45
2022-09-07T05:11:14.714Z,14.57
2022-09-07T05:14:18.131Z,14.31
2022-09-07T05:24:18.366Z,14.08
2022-09-07T05:34:29.570Z,14.09
2022-09-07T05:36:57.453Z,14.71
2022-09-07T05:40:05.246Z,14.42
2022-09-07T05:42:32.315Z,14.41
2022-09-07T05:44:59.234Z,14.40
2022-09-07T05:47:28.676Z,14.31
2022-09-07T05:57:52.155Z,14.39
2022-09-07T06:00:21.407Z,14.70
2022-09-07T06:02:48.907Z,14.47
2022-09-07T06:05:15.521Z,14.89
2022-09-07T06:07:42.036Z,15.05
2022-09-07T06:12:55.709Z,15.06
2022-09-07T06:15:22.294Z,15.22
2022-09-07T06:17:48.930Z,14.86
2022-09-07T06:20:15.521Z,15.13
2022-09-07T06:22:42.118Z,15.13
2022-09-07T06:25:14.630Z,15.25
2022-09-07T06:27:41.272Z,15.09
2022-09-07T06:30:08.379Z,15.39
2022-09-07T06:32:44.345Z,15.58
2022-09-07T06:35:11.908Z,15.39
2022-09-07T06:37:52.519Z,15.83
2022-09-07T06:40:22.972Z,15.58
2022-09-07T06:42:58.205Z,15.32
2022-09-07T06:45:24.961Z,15.84
2022-09-07T06:47:54.127Z,15.93
2022-09-07T06:50:20.666Z,15.81
2022-09-07T06:59:12.196Z,15.74
2022-09-07T07:01:38.833Z,15.94
2022-09-07T07:04:53.521Z,16.09
2022-09-07T07:07:40.765Z,16.17
2022-09-07T07:10:07.757Z,16.01
2022-09-07T07:12:52.767Z,16.34
2022-09-07T07:15:19.836Z,16.45
2022-09-07T07:17:51.942Z,16.56
2022-09-07T07:20:22.867Z,16.54
2022-09-07T07:22:52.847Z,16.66
2022-09-07T07:25:19.807Z,16.62
2022-09-07T07:27:47.062Z,16.32
2022-09-07T08:04:23.008Z,17.29
2022-09-07T08:10:29.148Z,17.98
2022-09-07T08:13:03.106Z,18.05
2022-09-07T08:15:31.187Z,18.04
2022-09-07T08:21:55.373Z,17.93
2022-09-07T08:24:35.396Z,18.31
2022-09-07T08:27:02.528Z,18.23
2022-09-07T08:38:20.923Z,18.71
2022-09-07T10:52:17.055Z,22.16
2022-09-07T10:55:26.633Z,21.82
2022-09-07T10:59:01.428Z,22.30
2022-09-07T11:01:28.271Z,22.00
2022-09-07T11:04:23.066Z,22.46
2022-09-07T11:11:13.570Z,22.36
2022-09-07T11:20:34.415Z,21.89
2022-09-07T11:23:23.057Z,22.00
2022-09-07T11:26:27.183Z,22.36
2022-09-07T11:29:34.708Z,22.10
2022-09-07T11:32:17.129Z,22.60
2022-09-07T11:35:04.969Z,22.63
2022-09-07T11:37:55.677Z,22.59
2022-09-07T11:40:39.765Z,23.02
2022-09-07T11:43:38.389Z,23.12
2022-09-07T12:13:48.487Z,23.19
2022-09-07T12:45:45.199Z,23.11
2022-09-07T14:01:43.925Z,23.66
2022-09-07T14:08:02.855Z,23.06
2022-09-07T14:10:29.538Z,23.03
2022-09-07T14:13:20.744Z,23.34
2022-09-07T14:15:52.507Z,23.19
2022-09-07T14:18:29.030Z,23.30
2022-09-07T14:20:56.413Z,23.46
2022-09-07T14:23:39.447Z,23.20
2022-09-07T14:26:19.203Z,23.04
2022-09-07T14:28:49.629Z,23.15
2022-09-07T14:31:20.550Z,22.95
2022-09-07T14:33:58.745Z,23.36
2022-09-07T14:36:46.482Z,23.06
2022-09-07T14:39:15.818Z,23.41
2022-09-07T14:41:45.522Z,23.68
2022-09-07T14:44:46.291Z,23.41
2022-09-07T14:47:30.593Z,23.46
2022-09-07T14:50:06.643Z,23.47
2022-09-07T14:52:42.429Z,23.38
2022-09-07T14:55:43.108Z,23.51
2022-09-07T14:58:15.865Z,23.89
2022-09-07T15:04:01.144Z,23.47
2022-09-07T15:09:35.707Z,23.74
2022-09-07T15:12:37.803Z,24.10
2022-09-07T15:15:26.165Z,24.38
2022-09-07T15:18:04.630Z,24.55
2022-09-07T15:20:41.078Z,24.58
2022-09-07T15:23:16.361Z,24.40
2022-09-07T15:29:18.628Z,24.19
2022-09-07T15:31:59.470Z,24.28
2022-09-07T15:34:31.507Z,23.91
2022-09-07T15:37:00.886Z,23.58
2022-09-07T15:40:09.519Z,24.07
2022-09-07T15:46:26.623Z,23.54
2022-09-07T15:49:12.414Z,23.41
2022-09-07T15:52:08.491Z,23.36
2022-09-07T15:54:56.688Z,23.12
2022-09-07T16:50:47.656Z,22.00
2022-09-07T16:54:27.500Z,21.84
2022-09-07T16:56:30.365Z,21.83
2022-09-07T17:11:56.105Z,21.88
2022-09-07T17:14:22.849Z,21.64
2022-09-07T17:16:53.124Z,21.76
2022-09-07T17:19:36.821Z,21.72
2022-09-07T17:22:04.210Z,21.65
2022-09-07T17:24:32.727Z,21.67
2022-09-07T17:29:44.146Z,21.49
2022-09-07T17:32:24.795Z,21.36
2022-09-07T21:34:39.041Z,17.76
2022-09-07T21:37:08.449Z,17.67
2022-09-07T21:39:35.494Z,17.78
2022-09-07T21:42:05.668Z,18.14
2022-09-07T21:44:32.304Z,17.73
2022-09-07T21:46:58.957Z,17.69
2022-09-07T21:49:25.662Z,18.08
2022-09-07T21:51:52.127Z,17.88
2022-09-07T21:54:18.699Z,18.10
2022-09-07T21:56:46.805Z,18.02
2022-09-07T21:59:14.025Z,18.00
2022-09-07T22:01:41.034Z,17.73
2022-09-07T22:04:07.755Z,17.94
2022-09-07T22:06:34.757Z,18.29
2022-09-07T22:09:05.356Z,18.11
2022-09-07T22:11:32.253Z,18.04
2022-09-07T22:14:04.549Z,18.31
2022-09-07T22:16:33.235Z,18.23
2022-09-07T22:19:00.435Z,18.00
2022-09-07T22:21:28.661Z,18.19
2022-09-07T22:24:06.267Z,18.10
2022-09-07T22:26:37.817Z,18.11
2022-09-07T22:29:06.436Z,18.05
2022-09-07T22:31:35.247Z,17.85
2022-09-07T22:34:03.684Z,18.16
2022-09-07T22:36:33.057Z,18.27
2022-09-07T22:39:02.274Z,18.22
2022-09-07T22:41:31.315Z,18.19
2022-09-07T22:43:58.688Z,18.12
2022-09-07T22:46:28.461Z,17.90
2022-09-07T22:48:57.064Z,17.84
2022-09-07T22:51:25.306Z,17.79
2022-09-07T22:53:52.507Z,17.88
2022-09-07T22:56:22.042Z,17.73
2022-09-07T22:58:58.000Z,17.76
2022-09-07T23:01:32.072Z,17.82
2022-09-07T23:04:00.019Z,17.61
2022-09-07T23:06:30.883Z,17.82
2022-09-07T23:08:59.457Z,17.61
2022-09-07T23:11:27.016Z,17.78
2022-09-07T23:13:55.652Z,17.71
2022-09-07T23:16:23.243Z,17.53
2022-09-07T23:18:52.884Z,17.80
2022-09-07T23:21:19.614Z,17.71
2022-09-07T23:23:52.259Z,17.65
2022-09-07T23:26:20.007Z,17.63
2022-09-07T23:28:50.310Z,17.46
2022-09-07T23:31:17.061Z,17.79
2022-09-07T23:33:43.561Z,17.52
2022-09-07T23:36:10.153Z,17.72
2022-09-07T23:38:36.632Z,17.77
2022-09-07T23:41:03.070Z,17.67
2022-09-07T23:43:31.540Z,17.55
2022-09-07T23:45:59.793Z,17.40
2022-09-07T23:48:26.821Z,17.26
2022-09-07T23:50:54.179Z,17.51
2022-09-07T23:53:22.429Z,17.19
2022-09-07T23:55:50.503Z,17.48
2022-09-07T23:58:19.778Z,17.11
